createdAt,value
2019-04-06T00:00:14.675Z,7.17
2019-04-06T00:02:44.208Z,7.80
2019-04-06T00:05:14.306Z,6.57
2019-04-06T00:07:43.862Z,5.67
2019-04-06T00:10:14.335Z,7.13
2019-04-06T00:12:43.844Z,6.67
2019-04-06T00:15:13.399Z,7.93
2019-04-06T00:17:42.876Z,6.90
2019-04-06T00:20:13.270Z,6.70
2019-04-06T00:22:42.809Z,7.10
2019-04-06T00:25:13.974Z,6.20
2019-04-06T00:27:43.424Z,6.63
2019-04-06T00:30:14.719Z,6.73
2019-04-06T00:32:48.633Z,6.73
2019-04-06T00:35:18.118Z,6.43
2019-04-06T00:37:47.651Z,7.40
2019-04-06T00:40:17.366Z,6.37
2019-04-06T00:42:46.844Z,6.70
2019-04-06T00:45:16.415Z,7.43
2019-04-06T00:47:45.905Z,7.20
2019-04-06T00:50:15.590Z,6.57
2019-04-06T00:52:45.085Z,5.77
2019-04-06T00:55:14.700Z,6.20
2019-04-06T00:57:44.157Z,7.47
2019-04-06T01:00:14.582Z,7.33
2019-04-06T01:02:44.185Z,6.67
2019-04-06T01:05:13.835Z,7.13
2019-04-06T01:07:43.300Z,6.47
2019-04-06T01:10:12.944Z,6.50
2019-04-06T01:12:42.469Z,6.93
2019-04-06T01:15:12.166Z,5.97
2019-04-06T01:17:41.652Z,7.33
2019-04-06T01:20:11.388Z,6.00
2019-04-06T01:22:40.871Z,5.63
2019-04-06T01:25:10.658Z,6.50
2019-04-06T01:27:40.276Z,5.43
2019-04-06T01:30:10.838Z,6.03
2019-04-06T01:32:40.345Z,5.80
2019-04-06T01:35:09.967Z,5.87
2019-04-06T01:37:39.436Z,6.13
2019-04-06T01:40:09.141Z,6.27
2019-04-06T01:42:38.669Z,7.07
2019-04-06T01:45:09.785Z,6.07
2019-04-06T01:47:39.371Z,6.60
2019-04-06T01:50:08.911Z,6.73
2019-04-06T01:52:38.460Z,6.30
2019-04-06T01:55:08.095Z,5.20
2019-04-06T01:57:37.855Z,5.87
2019-04-06T02:00:10.764Z,5.33
2019-04-06T02:02:47.591Z,6.57
2019-04-06T02:05:17.148Z,6.43
2019-04-06T02:07:46.704Z,6.53
2019-04-06T02:10:16.346Z,5.43
2019-04-06T02:12:45.807Z,5.57
2019-04-06T02:15:15.839Z,5.60
2019-04-06T02:17:45.276Z,5.37
2019-04-06T02:20:15.345Z,6.53
2019-04-06T02:22:44.891Z,6.43
2019-04-06T02:25:14.496Z,4.97
2019-04-06T02:27:43.998Z,5.70
2019-04-06T02:30:24.261Z,6.37
2019-04-06T02:32:55.383Z,5.43
2019-04-06T02:35:24.610Z,6.27
2019-04-06T02:38:01.265Z,5.40
2019-04-06T02:43:34.351Z,6.47
2019-04-06T02:46:03.950Z,6.13
2019-04-06T02:48:33.677Z,5.67
2019-04-06T02:51:03.208Z,6.83
2019-04-06T02:53:32.690Z,6.10
2019-04-06T02:56:02.154Z,6.40
2019-04-06T02:58:31.653Z,6.70
2019-04-06T03:01:01.189Z,6.13
2019-04-06T03:03:30.744Z,7.07
2019-04-06T03:06:00.246Z,6.87
2019-04-06T03:08:29.767Z,6.23
2019-04-06T03:10:59.248Z,5.87
2019-04-06T03:13:28.846Z,5.80
2019-04-06T03:15:58.406Z,6.90
2019-04-06T03:18:27.986Z,7.37
2019-04-06T03:20:57.599Z,7.13
2019-04-06T03:23:27.142Z,6.23
2019-04-06T03:25:56.687Z,6.90
2019-04-06T03:28:26.257Z,7.43
2019-04-06T03:30:55.707Z,6.23
2019-04-06T03:33:25.635Z,6.47
2019-04-06T03:35:55.121Z,6.40
2019-04-06T03:38:24.583Z,5.50
2019-04-06T03:40:54.384Z,7.13
2019-04-06T03:43:23.943Z,6.30
2019-04-06T03:45:53.404Z,6.53
2019-04-06T03:48:22.882Z,6.40
2019-04-06T03:50:52.389Z,6.73
2019-04-06T03:53:41.225Z,6.70
2019-04-06T03:56:10.674Z,5.97
2019-04-06T03:58:40.211Z,6.57
2019-04-06T04:01:29.127Z,5.97
2019-04-06T04:03:58.622Z,5.80
2019-04-06T04:06:28.115Z,5.90
2019-04-06T04:08:57.581Z,6.57
2019-04-06T04:11:27.196Z,6.33
2019-04-06T04:14:16.002Z,5.83
2019-04-06T04:16:45.518Z,6.40
2019-04-06T04:19:15.021Z,5.43
2019-04-06T04:21:44.801Z,6.00
2019-04-06T04:24:14.387Z,4.90
2019-04-06T04:26:43.842Z,6.23
2019-04-06T04:29:13.588Z,5.60
2019-04-06T04:31:43.104Z,6.37
2019-04-06T04:34:12.582Z,5.73
2019-04-06T04:36:42.068Z,6.10
2019-04-06T04:39:11.536Z,5.77
2019-04-06T04:41:41.054Z,7.07
2019-04-06T04:44:10.651Z,5.90
2019-04-06T04:46:40.236Z,5.07
2019-04-06T04:49:09.698Z,5.10
2019-04-06T04:51:39.204Z,4.90
2019-04-06T04:54:08.663Z,5.30
2019-04-06T04:56:38.339Z,5.97
2019-04-06T04:59:07.790Z,6.70
2019-04-06T05:01:37.286Z,6.53
2019-04-06T05:04:06.788Z,6.07
2019-04-06T05:06:36.270Z,6.20
2019-04-06T05:09:07.604Z,6.57
2019-04-06T05:11:37.148Z,6.87
2019-04-06T05:14:54.174Z,6.60
2019-04-06T05:17:23.631Z,5.87
2019-04-06T05:19:53.113Z,5.23
2019-04-06T05:22:22.759Z,6.40
2019-04-06T05:24:52.226Z,5.50
2019-04-06T05:27:21.852Z,5.90
2019-04-06T05:29:51.455Z,5.97
2019-04-06T05:32:20.958Z,6.73
2019-04-06T05:34:50.507Z,6.13
2019-04-06T05:37:19.996Z,6.10
2019-04-06T05:39:49.457Z,6.67
2019-04-06T05:42:19.077Z,6.90
2019-04-06T05:44:48.555Z,6.53
2019-04-06T05:47:18.164Z,6.67
2019-04-06T05:49:47.691Z,6.70
2019-04-06T05:52:17.185Z,6.23
2019-04-06T05:54:46.744Z,6.70
2019-04-06T05:57:16.220Z,6.30
2019-04-06T05:59:45.725Z,5.70
2019-04-06T06:02:15.210Z,6.90
2019-04-06T06:04:44.678Z,6.30
2019-04-06T06:07:14.250Z,6.00
2019-04-06T06:09:43.743Z,7.03
2019-04-06T06:12:14.502Z,6.73
2019-04-06T06:14:44.124Z,6.30
2019-04-06T06:17:14.465Z,5.67
2019-04-06T06:19:44.156Z,8.30
2019-04-06T06:22:13.651Z,6.77
2019-04-06T06:24:43.170Z,6.13
2019-04-06T06:27:12.653Z,6.70
2019-04-06T06:29:42.210Z,7.57
2019-04-06T06:32:11.707Z,7.60
2019-04-06T06:34:41.195Z,8.40
2019-04-06T06:37:10.668Z,7.83
2019-04-06T06:39:40.295Z,7.30
2019-04-06T06:42:09.803Z,6.37
2019-04-06T06:44:39.290Z,8.87
2019-04-06T06:47:08.743Z,8.87
2019-04-06T06:49:38.342Z,8.83
2019-04-06T06:52:07.814Z,9.37
2019-04-06T06:54:37.302Z,10.83
2019-04-06T06:57:06.876Z,9.77
2019-04-06T06:59:36.381Z,11.10
2019-04-06T07:02:06.003Z,8.80
2019-04-06T07:04:35.648Z,10.47
2019-04-06T07:07:05.382Z,10.60
2019-04-06T07:09:34.968Z,11.87
2019-04-06T07:12:04.571Z,11.43
2019-04-06T07:14:34.070Z,10.93
2019-04-06T07:17:03.616Z,11.00
2019-04-06T07:19:33.086Z,11.63
2019-04-06T07:22:02.598Z,12.07
2019-04-06T07:24:32.065Z,12.17
2019-04-06T07:27:01.559Z,10.10
2019-04-06T07:29:31.092Z,10.73
2019-04-06T07:32:00.819Z,13.53
2019-04-06T07:34:30.522Z,13.67
2019-04-06T07:37:00.142Z,15.30
2019-04-06T07:39:29.674Z,16.53
2019-04-06T07:41:59.181Z,13.40
2019-04-06T07:44:28.656Z,11.30
2019-04-06T07:46:58.331Z,15.53
2019-04-06T07:49:27.847Z,14.43
2019-04-06T07:51:57.310Z,12.93
2019-04-06T07:54:27.025Z,11.57
2019-04-06T07:56:56.593Z,10.87
2019-04-06T07:59:26.248Z,11.60
2019-04-06T08:01:56.003Z,11.60
2019-04-06T08:04:25.492Z,12.30
2019-04-06T08:06:54.981Z,12.00
2019-04-06T08:09:24.528Z,12.57
2019-04-06T08:12:13.380Z,12.33
2019-04-06T08:14:42.896Z,11.70
2019-04-06T08:17:12.441Z,12.23
2019-04-06T08:19:41.979Z,10.63
2019-04-06T08:22:11.502Z,11.73
2019-04-06T08:24:40.996Z,12.70
2019-04-06T08:27:10.497Z,11.10
2019-04-06T08:29:40.085Z,11.27
2019-04-06T08:32:09.539Z,11.43
2019-04-06T08:34:39.011Z,11.40
2019-04-06T08:37:08.508Z,12.00
2019-04-06T08:39:38.027Z,10.57
2019-04-06T08:42:07.682Z,11.03
2019-04-06T08:44:37.142Z,12.27
2019-04-06T08:47:07.084Z,12.50
2019-04-06T08:49:36.738Z,11.70
2019-04-06T08:52:06.204Z,12.30
2019-04-06T08:54:35.716Z,12.93
2019-04-06T08:57:05.256Z,12.00
2019-04-06T08:59:34.757Z,12.03
2019-04-06T09:02:04.409Z,10.97
2019-04-06T09:04:34.134Z,12.03
2019-04-06T09:07:03.673Z,11.77
2019-04-06T09:09:33.190Z,10.73
2019-04-06T09:12:02.976Z,11.67
2019-04-06T09:14:32.556Z,10.73
2019-04-06T09:17:02.067Z,12.87
2019-04-06T09:19:31.539Z,12.47
2019-04-06T09:22:01.030Z,13.03
2019-04-06T09:24:30.529Z,11.90
2019-04-06T09:27:00.099Z,12.30
2019-04-06T09:29:29.583Z,11.87
2019-04-06T09:31:59.095Z,12.07
2019-04-06T09:34:30.699Z,12.13
2019-04-06T09:36:59.858Z,14.07
2019-04-06T09:39:29.386Z,12.07
2019-04-06T09:41:59.255Z,11.80
2019-04-06T09:44:46.420Z,12.27
2019-04-06T09:47:28.335Z,11.80
2019-04-06T09:50:02.276Z,25.30
2019-04-06T09:52:34.587Z,50.87
2019-04-06T09:55:26.355Z,23.10
2019-04-06T10:00:46.403Z,12.43
2019-04-06T10:03:33.677Z,12.33
2019-04-06T10:06:13.683Z,11.93
2019-04-06T10:08:51.049Z,11.90
2019-04-06T10:11:38.321Z,11.37
2019-04-06T10:14:09.534Z,11.70
2019-04-06T10:16:50.485Z,12.53
2019-04-06T10:19:33.627Z,12.63
2019-04-06T10:22:20.904Z,11.60
2019-04-06T10:24:50.176Z,11.23
2019-04-06T10:27:36.032Z,12.10
2019-04-06T10:30:09.957Z,13.17
2019-04-06T10:32:47.237Z,11.30
2019-04-06T10:35:25.486Z,11.70
2019-04-06T10:37:56.636Z,11.63
2019-04-06T10:40:25.880Z,11.83
2019-04-06T10:42:57.370Z,12.87
2019-04-06T10:45:31.400Z,12.73
2019-04-06T10:48:18.562Z,13.77
2019-04-06T10:50:53.701Z,11.40
2019-04-06T10:53:24.895Z,12.50
2019-04-06T10:56:04.529Z,10.80
2019-04-06T10:58:55.009Z,11.60
2019-04-06T11:01:35.283Z,11.97
2019-04-06T11:04:18.380Z,11.13
2019-04-06T11:06:55.844Z,11.93
2019-04-06T11:09:39.174Z,12.07
2019-04-06T11:12:17.066Z,11.63
2019-04-06T11:15:00.311Z,11.87
2019-04-06T11:17:34.632Z,13.63
2019-04-06T11:20:17.409Z,11.87
2019-04-06T11:22:51.284Z,11.10
2019-04-06T11:25:22.789Z,12.60
2019-04-06T11:27:54.992Z,11.50
2019-04-06T11:30:34.915Z,10.63
2019-04-06T11:33:21.077Z,15.67
2019-04-06T11:36:08.286Z,13.53
2019-04-06T11:41:48.455Z,12.10
2019-04-06T11:44:31.399Z,11.83
2019-04-06T11:47:02.607Z,11.50
2019-04-06T11:52:18.968Z,10.37
2019-04-06T11:54:50.088Z,11.30
2019-04-06T11:57:21.352Z,11.30
2019-04-06T12:00:07.835Z,9.93
2019-04-06T12:02:38.960Z,10.27
2019-04-06T12:05:19.540Z,10.63
2019-04-06T12:07:53.385Z,9.90
2019-04-06T12:10:27.334Z,9.10
2019-04-06T12:12:58.504Z,8.77
2019-04-06T12:15:45.809Z,9.67
2019-04-06T12:18:18.454Z,9.83
2019-04-06T12:21:05.921Z,9.23
2019-04-06T12:23:37.328Z,10.03
2019-04-06T12:26:25.298Z,9.33
2019-04-06T12:29:09.699Z,9.20
2019-04-06T12:31:57.045Z,9.73
2019-04-06T12:34:26.374Z,9.17
2019-04-06T12:36:57.600Z,10.50
2019-04-06T12:39:34.860Z,9.97
2019-04-06T12:42:06.051Z,9.90
2019-04-06T12:44:40.082Z,10.37
2019-04-06T12:47:27.477Z,10.00
2019-04-06T12:50:14.828Z,9.73
2019-04-06T12:53:03.874Z,10.40
2019-04-06T12:55:37.500Z,9.57
2019-04-06T12:58:09.951Z,9.40
2019-04-06T13:00:54.547Z,9.73
2019-04-06T13:03:34.543Z,9.37
2019-04-06T13:06:08.996Z,9.00
2019-04-06T13:08:42.614Z,8.97
2019-04-06T13:11:19.709Z,9.60
2019-04-06T13:13:52.759Z,9.33
2019-04-06T13:16:29.706Z,9.23
2019-04-06T13:19:19.357Z,9.47
2019-04-06T13:21:48.784Z,9.27
2019-04-06T13:24:22.553Z,8.97
2019-04-06T13:26:56.244Z,9.97
2019-04-06T13:29:27.925Z,10.37
2019-04-06T13:32:05.669Z,9.47
2019-04-06T13:37:22.122Z,9.73
2019-04-06T13:42:52.302Z,9.27
2019-04-06T13:45:23.535Z,10.50
2019-04-06T13:48:10.680Z,10.17
2019-04-06T13:50:44.600Z,9.43
2019-04-06T13:53:15.840Z,9.33
2019-04-06T13:56:02.041Z,11.73
2019-04-06T14:01:21.162Z,10.03
2019-04-06T14:03:50.394Z,8.43
2019-04-06T14:06:24.615Z,9.37
2019-04-06T14:09:03.132Z,9.30
2019-04-06T14:11:44.531Z,10.00
2019-04-06T14:14:29.222Z,9.97
2019-04-06T14:17:16.677Z,11.07
2019-04-06T14:22:35.653Z,9.90
2019-04-06T14:25:07.280Z,9.57
2019-04-06T14:27:38.524Z,9.77
2019-04-06T14:30:10.353Z,9.47
2019-04-06T14:32:56.587Z,9.90
2019-04-06T14:35:27.895Z,9.90
2019-04-06T14:38:14.835Z,9.57
2019-04-06T14:40:51.664Z,8.57
2019-04-06T14:43:25.505Z,9.03
2019-04-06T14:46:03.517Z,10.33
2019-04-06T14:48:32.845Z,9.77
2019-04-06T14:51:19.798Z,10.53
2019-04-06T14:54:07.365Z,10.87
2019-04-06T14:56:47.326Z,11.23
2019-04-06T14:59:24.665Z,9.47
2019-04-06T15:01:58.990Z,8.63
2019-04-06T15:04:37.975Z,8.73
2019-04-06T15:07:27.123Z,9.47
2019-04-06T15:10:01.209Z,10.60
2019-04-06T15:12:32.328Z,10.30
2019-04-06T15:15:04.509Z,9.40
2019-04-06T15:17:38.483Z,9.07
2019-04-06T15:20:21.919Z,9.83
2019-04-06T15:22:55.837Z,9.57
2019-04-06T15:25:42.289Z,9.27
2019-04-06T15:28:28.790Z,8.37
2019-04-06T15:31:04.056Z,7.80
2019-04-06T15:33:50.344Z,8.07
2019-04-06T15:36:24.099Z,9.00
2019-04-06T15:39:07.607Z,8.23
2019-04-06T15:41:55.415Z,7.57
2019-04-06T15:44:32.782Z,7.67
2019-04-06T15:47:02.117Z,7.67
2019-04-06T15:49:50.757Z,7.37
2019-04-06T15:52:22.963Z,7.20
2019-04-06T15:54:52.319Z,7.40
2019-04-06T15:57:39.818Z,7.73
2019-04-06T16:00:12.348Z,8.10
2019-04-06T16:05:48.511Z,7.47
2019-04-06T16:08:17.775Z,7.67
2019-04-06T16:11:06.759Z,7.57
2019-04-06T16:13:39.157Z,7.27
2019-04-06T16:16:13.337Z,6.63
2019-04-06T16:18:59.423Z,6.93
2019-04-06T16:21:33.507Z,6.70
2019-04-06T16:24:07.679Z,6.00
2019-04-06T16:26:47.867Z,6.43
2019-04-06T16:29:34.950Z,7.93
2019-04-06T16:32:31.465Z,6.10
2019-04-06T16:34:54.122Z,6.53
2019-04-06T16:37:27.902Z,6.63
2019-04-06T16:40:11.095Z,6.60
2019-04-06T16:42:49.660Z,6.97
2019-04-06T16:45:20.814Z,6.50
2019-04-06T16:47:51.970Z,6.37
2019-04-06T16:50:23.245Z,6.60
2019-04-06T16:53:03.848Z,5.90
2019-04-06T16:55:38.098Z,6.60
2019-04-06T16:58:16.405Z,5.97
2019-04-06T17:00:53.216Z,5.90
2019-04-06T17:03:25.364Z,5.63
2019-04-06T17:06:13.040Z,5.77
2019-04-06T17:08:54.271Z,5.80
2019-04-06T17:11:43.209Z,6.23
2019-04-06T17:14:30.977Z,6.77
2019-04-06T17:17:18.703Z,5.73
2019-04-06T17:20:05.967Z,5.53
2019-04-06T17:22:37.112Z,5.50
2019-04-06T17:25:22.354Z,5.90
2019-04-06T17:27:55.994Z,5.40
2019-04-06T17:30:36.113Z,5.87
2019-04-06T17:33:19.256Z,5.73
2019-04-06T17:35:50.596Z,5.60
2019-04-06T17:38:19.939Z,5.60
2019-04-06T17:40:54.142Z,5.43
2019-04-06T17:43:32.575Z,5.43
2019-04-06T17:46:09.810Z,4.70
2019-04-06T17:48:41.592Z,4.50
2019-04-06T17:51:13.365Z,5.00
2019-04-06T17:53:42.628Z,5.70
2019-04-06T17:56:48.887Z,6.03
2019-04-06T17:59:25.138Z,5.37
2019-04-06T18:02:12.405Z,6.07
2019-04-06T18:04:43.659Z,5.77
2019-04-06T18:07:15.650Z,5.73
2019-04-06T18:09:55.463Z,5.33
2019-04-06T18:12:42.923Z,6.23
2019-04-06T18:15:12.569Z,6.40
2019-04-06T18:17:42.203Z,5.90
2019-04-06T18:20:12.107Z,7.77
2019-04-06T18:22:41.617Z,8.77
2019-04-06T18:25:11.321Z,7.47
2019-04-06T18:27:40.871Z,7.50
2019-04-06T18:30:13.483Z,6.50
2019-04-06T18:33:00.734Z,7.03
2019-04-06T18:35:24.733Z,6.20
2019-04-06T18:37:59.177Z,6.90
2019-04-06T18:40:28.857Z,6.50
2019-04-06T18:42:58.700Z,6.80
2019-04-06T18:45:29.927Z,6.43
2019-04-06T18:47:59.490Z,6.43
2019-04-06T18:50:36.083Z,6.73
2019-04-06T18:53:00.479Z,6.67
2019-04-06T18:55:30.050Z,7.27
2019-04-06T18:58:10.525Z,8.67
2019-04-06T19:00:31.115Z,8.77
2019-04-06T19:03:11.150Z,8.17
2019-04-06T19:05:32.158Z,7.40
2019-04-06T19:08:01.941Z,8.37
2019-04-06T19:10:31.620Z,8.47
2019-04-06T19:13:01.164Z,11.00
2019-04-06T19:15:30.770Z,10.27
2019-04-06T19:18:00.255Z,9.83
2019-04-06T19:20:30.412Z,8.70
2019-04-06T19:23:00.067Z,9.17
2019-04-06T19:25:29.990Z,8.93
2019-04-06T19:27:59.861Z,7.10
2019-04-06T19:30:30.369Z,8.07
2019-04-06T19:33:00.000Z,8.40
2019-04-06T19:35:29.501Z,7.90
2019-04-06T19:37:59.629Z,8.63
2019-04-06T19:40:29.327Z,8.63
2019-04-06T19:42:58.961Z,8.80
2019-04-06T19:45:28.541Z,7.80
2019-04-06T19:47:58.396Z,9.07
2019-04-06T19:50:28.050Z,8.23
2019-04-06T19:52:57.551Z,8.67
2019-04-06T19:55:26.994Z,8.27
2019-04-06T19:57:56.509Z,7.80
2019-04-06T20:00:27.199Z,8.10
2019-04-06T20:02:57.822Z,7.83
2019-04-06T20:05:27.450Z,7.73
2019-04-06T20:07:56.970Z,8.30
2019-04-06T20:10:26.572Z,8.63
2019-04-06T20:12:56.041Z,8.67
2019-04-06T20:15:25.510Z,7.53
2019-04-06T20:17:55.034Z,8.07
2019-04-06T20:20:24.685Z,7.23
2019-04-06T20:22:54.211Z,8.33
2019-04-06T20:25:24.012Z,7.67
2019-04-06T20:27:53.650Z,8.53
2019-04-06T20:30:23.259Z,10.03
2019-04-06T20:32:52.897Z,10.43
2019-04-06T20:35:22.502Z,10.40
2019-04-06T20:37:52.719Z,9.60
2019-04-06T20:40:22.449Z,9.57
2019-04-06T20:42:51.995Z,10.63
2019-04-06T20:45:21.641Z,9.30
2019-04-06T20:47:51.144Z,10.60
2019-04-06T20:50:20.863Z,9.30
2019-04-06T20:52:50.773Z,8.53
2019-04-06T20:55:20.318Z,10.57
2019-04-06T20:57:49.812Z,10.63
2019-04-06T21:00:20.404Z,10.90
2019-04-06T21:02:50.068Z,11.30
2019-04-06T21:05:21.034Z,11.50
2019-04-06T21:07:50.781Z,11.53
2019-04-06T21:10:20.456Z,10.97
2019-04-06T21:12:50.033Z,8.90
2019-04-06T21:15:21.058Z,8.70
2019-04-06T21:17:50.994Z,9.90
2019-04-06T21:20:20.907Z,8.70
2019-04-06T21:22:50.764Z,8.80
2019-04-06T21:25:20.407Z,9.87
2019-04-06T21:27:49.899Z,10.50
2019-04-06T21:30:19.750Z,9.40
2019-04-06T21:32:49.297Z,10.37
2019-04-06T21:35:18.948Z,10.30
2019-04-06T21:37:48.430Z,9.30
2019-04-06T21:40:18.054Z,9.77
2019-04-06T21:42:47.573Z,9.77
2019-04-06T21:45:17.236Z,11.10
2019-04-06T21:47:47.815Z,10.20
2019-04-06T21:50:17.504Z,11.33
2019-04-06T21:52:49.314Z,11.23
2019-04-06T21:55:18.200Z,10.77
2019-04-06T21:57:47.741Z,11.17
2019-04-06T22:00:35.662Z,11.07
2019-04-06T22:03:06.128Z,11.67
2019-04-06T22:05:36.243Z,10.90
2019-04-06T22:08:06.098Z,11.73
2019-04-06T22:10:35.727Z,11.40
2019-04-06T22:13:07.025Z,12.10
2019-04-06T22:15:37.174Z,10.27
2019-04-06T22:18:07.835Z,13.30
2019-04-06T22:20:37.485Z,11.43
2019-04-06T22:23:07.114Z,12.57
2019-04-06T22:25:36.792Z,13.43
2019-04-06T22:28:06.419Z,12.17
2019-04-06T22:30:36.383Z,13.30
2019-04-06T22:33:06.144Z,14.57
2019-04-06T22:35:36.260Z,12.77
2019-04-06T22:38:06.826Z,12.27
2019-04-06T22:40:55.742Z,13.17
2019-04-06T22:43:25.245Z,11.67
2019-04-06T22:45:54.788Z,11.17
2019-04-06T22:48:24.323Z,10.60
2019-04-06T22:50:54.179Z,11.17
2019-04-06T22:53:23.766Z,11.10
2019-04-06T22:55:53.921Z,10.67
2019-04-06T22:58:24.025Z,10.53
2019-04-06T23:01:01.433Z,9.43
2019-04-06T23:03:48.590Z,9.13
2019-04-06T23:06:22.401Z,7.97
2019-04-06T23:08:51.876Z,8.67
2019-04-06T23:11:21.683Z,8.67
2019-04-06T23:13:51.704Z,8.73
2019-04-06T23:16:21.801Z,9.03
2019-04-06T23:18:51.662Z,8.77
2019-04-06T23:21:21.462Z,10.07
2019-04-06T23:23:51.070Z,9.40
2019-04-06T23:26:20.537Z,9.63
2019-04-06T23:28:50.258Z,9.87
2019-04-06T23:31:20.005Z,10.77
2019-04-06T23:33:49.627Z,10.63
2019-04-06T23:36:19.228Z,9.43
2019-04-06T23:39:09.454Z,11.00
2019-04-06T23:41:39.094Z,9.30
2019-04-06T23:44:08.891Z,9.23
2019-04-06T23:46:38.408Z,9.17
2019-04-06T23:49:27.577Z,9.37
2019-04-06T23:51:57.752Z,8.77
2019-04-06T23:54:27.290Z,9.40
2019-04-06T23:56:56.877Z,9.33
2019-04-06T23:59:26.334Z,10.73
